Time,TemperatureF,DewpointF,PressureIn,WindDirection,WindDirectionDegrees,WindSpeedMPH,WindSpeedGustMPH,Humidity,HourlyPrecipIn,Conditions,Clouds,dailyrainin,SoftwareType,DateUTC
2013-01-17 00:03:00,31.5,25.5,30.24,SSE,158,0.2,0.9,78,0.00,,,0.00,WUHU216HW,2013-01-17 08:03:00,
2013-01-17 00:08:00,31.3,24.9,30.25,SSE,158,1.8,2.0,77,0.00,,,0.00,WUHU216HW,2013-01-17 08:08:00,
2013-01-17 00:13:00,31.3,24.9,30.25,SSE,158,1.6,2.0,77,0.00,,,0.00,WUHU216HW,2013-01-17 08:13:00,
2013-01-17 00:18:00,31.3,24.9,30.25,SSW,203,1.3,2.0,77,0.00,,,0.00,WUHU216HW,2013-01-17 08:18:00,
2013-01-17 00:23:00,31.3,24.9,30.25,SSE,158,0.9,2.0,77,0.00,,,0.00,WUHU216HW,2013-01-17 08:23:00,
2013-01-17 00:28:00,31.3,25.3,30.25,SE,135,1.1,1.8,78,0.00,,,0.00,WUHU216HW,2013-01-17 08:28:00,
2013-01-17 00:33:00,31.3,24.9,30.25,SE,135,1.1,1.8,77,0.00,,,0.00,WUHU216HW,2013-01-17 08:33:00,
2013-01-17 00:38:00,31.1,25.1,30.25,SE,135,0.9,1.8,78,0.00,,,0.00,WUHU216HW,2013-01-17 08:38:00,
2013-01-17 00:43:00,31.1,25.1,30.25,SSW,203,0.0,1.1,78,0.00,,,0.00,WUHU216HW,2013-01-17 08:43:00,
2013-01-17 00:48:00,31.1,25.1,30.25,SE,135,0.4,1.1,78,0.00,,,0.00,WUHU216HW,2013-01-17 08:48:00,
2013-01-17 00:53:00,31.0,24.9,30.25,SE,135,0.4,0.9,78,0.00,,,0.00,WUHU216HW,2013-01-17 08:53:00,
2013-01-17 00:58:00,31.0,24.9,30.25,SSE,158,2.0,2.0,78,0.00,,,0.00,WUHU216HW,2013-01-17 08:58:00,
2013-01-17 01:03:00,31.0,24.9,30.25,SSW,203,2.2,2.2,78,0.00,,,0.00,WUHU216HW,2013-01-17 09:03:00,
2013-01-17 01:08:00,31.0,24.9,30.25,SSW,203,1.1,2.2,78,0.00,,,0.00,WUHU216HW,2013-01-17 09:08:00,
2013-01-17 01:13:00,31.0,24.9,30.25,SW,225,0.4,1.1,78,0.00,,,0.00,WUHU216HW,2013-01-17 09:13:00,
2013-01-17 01:18:00,31.0,24.9,30.25,WSW,248,0.9,2.7,78,0.00,,,0.00,WUHU216HW,2013-01-17 09:18:00,
2013-01-17 01:23:00,30.8,24.8,30.25,SE,135,0.9,2.7,78,0.00,,,0.00,WUHU216HW,2013-01-17 09:23:00,
2013-01-17 01:28:00,30.8,24.8,30.25,SSE,158,0.4,1.6,78,0.00,,,0.00,WUHU216HW,2013-01-17 09:28:00,
2013-01-17 01:33:00,30.6,24.6,30.25,SSE,158,0.0,1.6,78,0.00,,,0.00,WUHU216HW,2013-01-17 09:33:00,
2013-01-17 01:38:00,30.6,24.6,30.25,ESE,113,2.0,2.0,78,0.00,,,0.00,WUHU216HW,2013-01-17 09:38:00,
2013-01-17 01:43:00,30.4,24.4,30.25,SE,135,0.0,2.0,78,0.00,,,0.00,WUHU216HW,2013-01-17 09:43:00,
2013-01-17 01:48:00,30.4,24.4,30.25,SSE,158,1.3,1.3,78,0.00,,,0.00,WUHU216HW,2013-01-17 09:48:00,
2013-01-17 01:53:00,30.2,24.2,30.25,SE,135,0.4,1.3,78,0.00,,,0.00,WUHU216HW,2013-01-17 09:53:00,
2013-01-17 01:58:00,30.2,24.2,30.25,SE,135,0.0,0.4,78,0.00,,,0.00,WUHU216HW,2013-01-17 09:58:00,
2013-01-17 02:03:00,30.2,24.2,30.25,SE,135,1.1,1.6,78,0.00,,,0.00,WUHU216HW,2013-01-17 10:03:00,
2013-01-17 02:08:00,30.1,24.0,30.25,SSE,158,0.7,1.6,78,0.00,,,0.00,WUHU216HW,2013-01-17 10:08:00,
2013-01-17 02:13:00,30.1,24.0,30.25,SSW,203,0.7,0.7,78,0.00,,,0.00,WUHU216HW,2013-01-17 10:13:00,
2013-01-17 02:18:00,30.1,24.0,30.25,SSE,158,0.7,1.1,78,0.00,,,0.00,WUHU216HW,2013-01-17 10:18:00,
2013-01-17 02:23:00,30.1,24.0,30.25,SSE,158,0.4,1.1,78,0.00,,,0.00,WUHU216HW,2013-01-17 10:23:00,
2013-01-17 02:28:00,30.1,24.0,30.25,SE,135,1.3,1.3,78,0.00,,,0.00,WUHU216HW,2013-01-17 10:28:00,
2013-01-17 02:33:00,29.9,23.9,30.25,South,180,2.5,2.5,78,0.00,,,0.00,WUHU216HW,2013-01-17 10:33:00,
2013-01-17 02:38:00,30.1,24.0,30.25,SSE,158,0.4,3.1,78,0.00,,,0.00,WUHU216HW,2013-01-17 10:38:00,
2013-01-17 02:43:00,30.1,24.0,30.24,SSE,158,1.6,3.1,78,0.00,,,0.00,WUHU216HW,2013-01-17 10:43:00,
2013-01-17 02:48:00,30.2,24.2,30.24,SSE,158,0.4,1.6,78,0.00,,,0.00,WUHU216HW,2013-01-17 10:48:00,
2013-01-17 02:53:00,30.2,24.2,30.24,SE,135,0.9,1.6,78,0.00,,,0.00,WUHU216HW,2013-01-17 10:53:00,
2013-01-17 02:58:00,30.1,24.0,30.24,SE,135,1.1,1.6,78,0.00,,,0.00,WUHU216HW,2013-01-17 10:58:00,
2013-01-17 03:03:00,30.1,24.0,30.24,SSW,203,2.0,2.5,78,0.00,,,0.00,WUHU216HW,2013-01-17 11:03:00,
2013-01-17 03:08:00,30.1,24.0,30.23,SSE,158,0.7,2.5,78,0.00,,,0.00,WUHU216HW,2013-01-17 11:08:00,
2013-01-17 03:13:00,30.1,24.0,30.23,South,180,0.2,1.1,78,0.00,,,0.00,WUHU216HW,2013-01-17 11:13:00,
2013-01-17 03:18:00,29.9,24.1,30.23,SW,225,1.8,1.8,79,0.00,,,0.00,WUHU216HW,2013-01-17 11:18:00,
2013-01-17 03:23:00,29.9,24.1,30.23,SSW,203,0.7,1.8,79,0.00,,,0.00,WUHU216HW,2013-01-17 11:23:00,
2013-01-17 03:28:00,29.9,24.1,30.23,SSE,158,0.0,1.8,79,0.00,,,0.00,WUHU216HW,2013-01-17 11:28:00,
2013-01-17 03:33:00,29.9,23.9,30.23,SSE,158,0.7,1.3,78,0.00,,,0.00,WUHU216HW,2013-01-17 11:33:00,
2013-01-17 03:38:00,29.7,23.7,30.23,SSE,158,3.4,3.4,78,0.00,,,0.00,WUHU216HW,2013-01-17 11:38:00,
2013-01-17 03:43:00,29.7,23.7,30.22,West,270,0.0,3.4,78,0.00,,,0.00,WUHU216HW,2013-01-17 11:43:00,
2013-01-17 03:48:00,29.7,23.7,30.22,SE,135,0.4,1.6,78,0.00,,,0.00,WUHU216HW,2013-01-17 11:48:00,
2013-01-17 03:53:00,29.5,23.5,30.23,SSE,158,1.1,1.3,78,0.00,,,0.00,WUHU216HW,2013-01-17 11:53:00,
2013-01-17 03:58:00,29.5,23.8,30.22,SSE,158,0.0,1.3,79,0.00,,,0.00,WUHU216HW,2013-01-17 11:58:00,
2013-01-17 04:03:00,29.5,23.8,30.22,WSW,248,0.0,0.7,79,0.00,,,0.00,WUHU216HW,2013-01-17 12:03:00,
2013-01-17 04:08:00,29.5,23.8,30.22,SSE,158,1.1,1.6,79,0.00,,,0.00,WUHU216HW,2013-01-17 12:08:00,
2013-01-17 04:13:00,29.5,23.8,30.22,SW,225,0.4,1.6,79,0.00,,,0.00,WUHU216HW,2013-01-17 12:13:00,
2013-01-17 04:18:00,29.3,23.7,30.22,SW,225,0.4,1.1,79,0.00,,,0.00,WUHU216HW,2013-01-17 12:18:00,
2013-01-17 04:23:00,29.3,23.7,30.22,SSW,203,0.7,1.1,79,0.00,,,0.00,WUHU216HW,2013-01-17 12:23:00,
2013-01-17 04:28:00,29.3,23.7,30.22,SE,135,0.7,2.2,79,0.00,,,0.00,WUHU216HW,2013-01-17 12:28:00,
2013-01-17 04:33:00,29.3,23.7,30.22,West,270,0.0,2.2,79,0.00,,,0.00,WUHU216HW,2013-01-17 12:33:00,
2013-01-17 04:38:00,29.3,23.9,30.22,SSE,158,0.2,2.5,80,0.00,,,0.00,WUHU216HW,2013-01-17 12:38:00,
2013-01-17 04:43:00,29.3,23.7,30.22,SSW,203,0.2,2.5,79,0.00,,,0.00,WUHU216HW,2013-01-17 12:43:00,
2013-01-17 04:48:00,29.3,23.7,30.22,SE,135,0.0,1.3,79,0.00,,,0.00,WUHU216HW,2013-01-17 12:48:00,
2013-01-17 04:53:00,29.2,23.5,30.22,SW,225,0.0,2.5,79,0.00,,,0.00,WUHU216HW,2013-01-17 12:53:00,
2013-01-17 04:58:00,29.2,23.5,30.22,SE,135,0.0,2.5,79,0.00,,,0.00,WUHU216HW,2013-01-17 12:58:00,
2013-01-17 05:03:00,29.2,23.5,30.22,SSW,203,1.3,1.6,79,0.00,,,0.00,WUHU216HW,2013-01-17 13:03:00,
2013-01-17 05:08:00,29.2,23.5,30.21,SSW,203,0.0,1.6,79,0.00,,,0.00,WUHU216HW,2013-01-17 13:08:00,
2013-01-17 05:13:00,29.2,23.5,30.21,SSW,203,0.7,1.1,79,0.00,,,0.00,WUHU216HW,2013-01-17 13:13:00,
2013-01-17 05:18:00,29.0,23.3,30.21,SSE,158,2.0,2.5,79,0.00,,,0.00,WUHU216HW,2013-01-17 13:18:00,
2013-01-17 05:23:00,29.0,23.3,30.21,SW,225,0.9,2.5,79,0.00,,,0.00,WUHU216HW,2013-01-17 13:23:00,
2013-01-17 05:28:00,29.0,23.6,30.21,NE,45,0.0,1.8,80,0.00,,,0.00,WUHU216HW,2013-01-17 13:28:00,
2013-01-17 05:33:00,29.2,23.8,30.21,SW,225,1.1,1.8,80,0.00,,,0.00,WUHU216HW,2013-01-17 13:33:00,
2013-01-17 05:38:00,29.2,23.8,30.21,SW,225,1.3,1.8,80,0.00,,,0.00,WUHU216HW,2013-01-17 13:38:00,
2013-01-17 05:43:00,29.2,23.8,30.21,WSW,248,0.0,1.3,80,0.00,,,0.00,WUHU216HW,2013-01-17 13:43:00,
2013-01-17 05:48:00,29.0,23.6,30.21,WSW,248,1.1,1.3,80,0.00,,,0.00,WUHU216HW,2013-01-17 13:48:00,
2013-01-17 05:53:00,28.8,23.4,30.22,WSW,248,1.1,1.8,80,0.00,,,0.00,WUHU216HW,2013-01-17 13:53:00,
2013-01-17 05:58:00,29.0,23.6,30.21,WSW,248,0.4,1.8,80,0.00,,,0.00,WUHU216HW,2013-01-17 13:58:00,
2013-01-17 06:03:00,28.6,23.2,30.21,SW,225,0.4,0.9,80,0.00,,,0.00,WUHU216HW,2013-01-17 14:03:00,
2013-01-17 06:08:00,28.6,23.2,30.21,WSW,248,0.9,1.3,80,0.00,,,0.00,WUHU216HW,2013-01-17 14:08:00,
2013-01-17 06:13:00,28.6,23.2,30.21,NNW,338,0.4,1.3,80,0.00,,,0.00,WUHU216HW,2013-01-17 14:13:00,
2013-01-17 06:18:00,28.6,23.2,30.22,ENE,68,1.1,1.1,80,0.00,,,0.00,WUHU216HW,2013-01-17 14:18:00,
2013-01-17 06:23:00,28.6,23.2,30.22,SSW,203,1.6,2.5,80,0.00,,,0.00,WUHU216HW,2013-01-17 14:23:00,
2013-01-17 06:28:00,28.4,23.0,30.22,SW,225,0.0,2.5,80,0.00,,,0.00,WUHU216HW,2013-01-17 14:28:00,
2013-01-17 06:33:00,28.6,23.2,30.22,NNE,23,1.6,1.6,80,0.00,,,0.00,WUHU216HW,2013-01-17 14:33:00,
2013-01-17 06:38:00,28.6,23.5,30.22,NE,45,1.6,1.8,81,0.00,,,0.00,WUHU216HW,2013-01-17 14:38:00,
2013-01-17 06:43:00,28.8,23.7,30.21,ESE,113,2.9,2.9,81,0.00,,,0.00,WUHU216HW,2013-01-17 14:43:00,
2013-01-17 06:48:00,28.8,23.7,30.21,East,90,1.3,2.9,81,0.00,,,0.00,WUHU216HW,2013-01-17 14:48:00,
2013-01-17 06:53:00,28.8,23.7,30.22,SE,135,1.1,2.9,81,0.00,,,0.00,WUHU216HW,2013-01-17 14:53:00,
2013-01-17 06:58:00,28.8,23.7,30.22,SE,135,0.0,1.3,81,0.00,,,0.00,WUHU216HW,2013-01-17 14:58:00,
2013-01-17 07:03:00,28.8,23.7,30.22,SE,135,0.2,0.9,81,0.00,,,0.00,WUHU216HW,2013-01-17 15:03:00,
2013-01-17 07:08:00,28.8,23.7,30.22,SE,135,0.0,0.4,81,0.00,,,0.00,WUHU216HW,2013-01-17 15:08:00,
2013-01-17 07:13:00,28.8,23.7,30.22,SE,135,0.2,0.7,81,0.00,,,0.00,WUHU216HW,2013-01-17 15:13:00,
2013-01-17 07:18:00,28.8,23.7,30.22,SE,135,1.1,1.3,81,0.00,,,0.00,WUHU216HW,2013-01-17 15:18:00,
2013-01-17 07:23:00,28.6,23.5,30.22,ESE,113,0.4,1.3,81,0.00,,,0.00,WUHU216HW,2013-01-17 15:23:00,
2013-01-17 07:28:00,28.6,23.5,30.22,SSE,158,1.8,2.5,81,0.00,,,0.00,WUHU216HW,2013-01-17 15:28:00,
2013-01-17 07:33:00,28.6,23.5,30.22,SSE,158,0.0,2.5,81,0.00,,,0.00,WUHU216HW,2013-01-17 15:33:00,
2013-01-17 07:38:00,28.6,23.5,30.22,NE,45,2.7,2.7,81,0.00,,,0.00,WUHU216HW,2013-01-17 15:38:00,
2013-01-17 07:43:00,28.8,23.9,30.22,ESE,113,2.2,2.7,82,0.00,,,0.00,WUHU216HW,2013-01-17 15:43:00,
2013-01-17 07:48:00,29.2,25.5,30.22,NNE,23,4.0,4.0,86,0.00,,,0.00,WUHU216HW,2013-01-17 15:48:00,
2013-01-17 07:53:00,31.3,28.5,30.22,NE,45,4.0,4.0,89,0.00,,,0.00,WUHU216HW,2013-01-17 15:53:00,
2013-01-17 07:58:00,32.4,29.3,30.22,SE,135,1.1,4.0,88,0.00,,,0.00,WUHU216HW,2013-01-17 15:58:00,
2013-01-17 08:03:00,32.6,28.9,30.22,SSE,158,1.8,4.0,86,0.00,,,0.00,WUHU216HW,2013-01-17 16:03:00,
2013-01-17 08:08:00,32.6,28.3,30.23,SSW,203,2.2,2.2,84,0.00,,,0.00,WUHU216HW,2013-01-17 16:08:00,
2013-01-17 08:13:00,32.6,28.0,30.23,SW,225,1.8,2.2,83,0.00,,,0.00,WUHU216HW,2013-01-17 16:13:00,
2013-01-17 08:18:00,32.6,28.0,30.23,SW,225,1.3,2.0,83,0.00,,,0.00,WUHU216HW,2013-01-17 16:18:00,
2013-01-17 08:23:00,32.8,28.2,30.23,WSW,248,1.3,2.5,83,0.00,,,0.00,WUHU216HW,2013-01-17 16:23:00,
2013-01-17 08:28:00,33.1,28.4,30.24,WSW,248,0.7,2.5,83,0.00,,,0.00,WUHU216HW,2013-01-17 16:28:00,
2013-01-17 08:33:00,33.5,28.8,30.23,SW,225,2.5,2.5,83,0.00,,,0.00,WUHU216HW,2013-01-17 16:33:00,
2013-01-17 08:38:00,33.8,29.2,30.24,SW,225,0.0,2.5,83,0.00,,,0.00,WUHU216HW,2013-01-17 16:38:00,
2013-01-17 08:43:00,34.6,30.2,30.24,NNE,23,0.0,1.8,84,0.00,,,0.00,WUHU216HW,2013-01-17 16:43:00,
2013-01-17 08:48:00,34.9,30.5,30.24,SE,135,0.0,0.7,84,0.00,,,0.00,WUHU216HW,2013-01-17 16:48:00,
2013-01-17 08:53:00,35.6,31.2,30.24,SW,225,2.2,2.2,84,0.00,,,0.00,WUHU216HW,2013-01-17 16:53:00,
2013-01-17 08:58:00,36.4,32.2,30.24,SW,225,0.4,2.2,85,0.00,,,0.00,WUHU216HW,2013-01-17 16:58:00,
2013-01-17 09:03:00,36.7,32.3,30.24,WSW,248,0.7,2.0,84,0.00,,,0.00,WUHU216HW,2013-01-17 17:03:00,
2013-01-17 09:08:00,37.8,33.7,30.24,North,0,3.4,3.4,85,0.00,,,0.00,WUHU216HW,2013-01-17 17:08:00,
2013-01-17 09:13:00,39.2,34.2,30.24,North,0,3.4,3.8,82,0.00,,,0.00,WUHU216HW,2013-01-17 17:13:00,
2013-01-17 09:18:00,41.0,34.9,30.24,NNE,23,3.4,5.4,79,0.00,,,0.00,WUHU216HW,2013-01-17 17:18:00,
2013-01-17 09:23:00,42.3,35.6,30.24,North,0,2.0,5.4,77,0.00,,,0.00,WUHU216HW,2013-01-17 17:23:00,
2013-01-17 09:28:00,43.2,35.2,30.24,NNW,338,4.5,4.5,73,0.00,,,0.00,WUHU216HW,2013-01-17 17:28:00,
2013-01-17 09:33:00,44.1,35.6,30.24,North,0,5.6,5.6,72,0.00,,,0.00,WUHU216HW,2013-01-17 17:33:00,
2013-01-17 09:38:00,44.6,35.5,30.25,NE,45,2.7,6.0,70,0.00,,,0.00,WUHU216HW,2013-01-17 17:38:00,
2013-01-17 09:43:00,45.5,34.8,30.25,NNE,23,4.7,6.0,66,0.00,,,0.00,WUHU216HW,2013-01-17 17:43:00,
2013-01-17 09:48:00,46.3,34.3,30.25,NNE,23,6.9,7.2,63,0.00,,,0.00,WUHU216HW,2013-01-17 17:48:00,
2013-01-17 09:53:00,47.0,34.2,30.25,NNE,23,8.7,8.7,61,0.00,,,0.00,WUHU216HW,2013-01-17 17:53:00,
2013-01-17 09:58:00,47.7,34.6,30.25,NNE,23,6.7,8.7,60,0.00,,,0.00,WUHU216HW,2013-01-17 17:58:00,
2013-01-17 10:03:00,48.2,34.2,30.25,NNE,23,6.9,7.6,58,0.00,,,0.00,WUHU216HW,2013-01-17 18:03:00,
2013-01-17 10:08:00,48.8,34.2,30.24,NE,45,6.9,6.9,57,0.00,,,0.00,WUHU216HW,2013-01-17 18:08:00,
2013-01-17 10:13:00,49.3,33.8,30.24,NNE,23,7.4,7.4,55,0.00,,,0.00,WUHU216HW,2013-01-17 18:13:00,
2013-01-17 10:18:00,49.7,33.7,30.24,NE,45,6.7,8.1,54,0.00,,,0.00,WUHU216HW,2013-01-17 18:18:00,
2013-01-17 10:23:00,49.9,33.4,30.24,NNE,23,3.8,8.1,53,0.00,,,0.00,WUHU216HW,2013-01-17 18:23:00,
2013-01-17 10:28:00,50.2,34.7,30.24,NNE,23,6.0,6.9,55,0.00,,,0.00,WUHU216HW,2013-01-17 18:28:00,
2013-01-17 10:33:00,50.8,33.8,30.24,North,0,7.6,7.8,52,0.00,,,0.00,WUHU216HW,2013-01-17 18:33:00,
2013-01-17 10:38:00,51.1,34.1,30.23,ENE,68,4.9,11.6,52,0.01,,,0.01,WUHU216HW,2013-01-17 18:38:00,
2013-01-17 10:43:00,51.3,34.3,30.23,North,0,7.6,11.6,52,0.01,,,0.01,WUHU216HW,2013-01-17 18:43:00,
2013-01-17 10:48:00,51.7,34.1,30.22,NNE,23,7.2,7.6,51,0.01,,,0.01,WUHU216HW,2013-01-17 18:48:00,
2013-01-17 10:53:00,51.8,34.3,30.22,NNE,23,5.4,8.1,51,0.01,,,0.01,WUHU216HW,2013-01-17 18:53:00,
2013-01-17 10:58:00,52.2,35.1,30.22,NNE,23,6.5,8.5,52,0.01,,,0.01,WUHU216HW,2013-01-17 18:58:00,
2013-01-17 11:03:00,52.4,35.3,30.22,NE,45,4.9,8.5,52,0.01,,,0.01,WUHU216HW,2013-01-17 19:03:00,
2013-01-17 11:08:00,52.6,34.5,30.22,NNE,23,5.4,9.8,50,0.01,,,0.01,WUHU216HW,2013-01-17 19:08:00,
2013-01-17 11:13:00,52.9,34.8,30.22,NE,45,5.6,11.6,50,0.01,,,0.01,WUHU216HW,2013-01-17 19:13:00,
2013-01-17 11:18:00,53.1,35.0,30.22,NNE,23,11.6,11.6,50,0.01,,,0.01,WUHU216HW,2013-01-17 19:18:00,
2013-01-17 11:23:00,53.3,34.6,30.21,NNE,23,9.6,11.6,49,0.01,,,0.01,WUHU216HW,2013-01-17 19:23:00,
2013-01-17 11:28:00,53.5,34.2,30.21,NE,45,11.2,11.2,48,0.01,,,0.01,WUHU216HW,2013-01-17 19:28:00,
2013-01-17 11:33:00,53.6,34.9,30.20,NNE,23,11.2,13.0,49,0.01,,,0.01,WUHU216HW,2013-01-17 19:33:00,
2013-01-17 11:38:00,53.6,34.9,30.20,NE,45,8.7,13.0,49,0.00,,,0.01,WUHU216HW,2013-01-17 19:38:00,
2013-01-17 11:43:00,54.0,35.2,30.20,NNE,23,9.4,9.8,49,0.00,,,0.01,WUHU216HW,2013-01-17 19:43:00,
2013-01-17 11:48:00,54.0,35.2,30.20,NNE,23,9.2,11.0,49,0.00,,,0.01,WUHU216HW,2013-01-17 19:48:00,
2013-01-17 11:53:00,54.4,35.6,30.20,NNE,23,10.5,11.0,49,0.00,,,0.01,WUHU216HW,2013-01-17 19:53:00,
2013-01-17 11:58:00,54.4,35.6,30.19,NE,45,8.9,10.7,49,0.00,,,0.01,WUHU216HW,2013-01-17 19:58:00,
2013-01-17 12:03:00,54.7,36.5,30.19,ENE,68,9.8,10.3,50,0.00,,,0.01,WUHU216HW,2013-01-17 20:03:00,
2013-01-17 12:08:00,54.9,35.5,30.19,North,0,9.2,10.3,48,0.00,,,0.01,WUHU216HW,2013-01-17 20:08:00,
2013-01-17 12:13:00,54.9,35.5,30.19,NNE,23,10.5,12.8,48,0.00,,,0.01,WUHU216HW,2013-01-17 20:13:00,
2013-01-17 12:18:00,54.9,35.5,30.19,NNE,23,11.2,12.8,48,0.00,,,0.01,WUHU216HW,2013-01-17 20:18:00,
2013-01-17 12:23:00,54.9,35.5,30.18,NNE,23,11.6,12.3,48,0.00,,,0.01,WUHU216HW,2013-01-17 20:23:00,
2013-01-17 12:29:00,54.9,35.5,30.18,NE,45,9.8,12.3,48,0.00,,,0.01,WUHU216HW,2013-01-17 20:29:00,
2013-01-17 12:34:00,54.9,36.0,30.18,NE,45,8.9,11.6,49,0.00,,,0.01,WUHU216HW,2013-01-17 20:34:00,
2013-01-17 12:39:00,55.1,36.2,30.18,ENE,68,8.9,11.4,49,0.00,,,0.01,WUHU216HW,2013-01-17 20:39:00,
2013-01-17 12:44:00,55.1,35.6,30.18,NE,45,11.2,11.4,48,0.00,,,0.01,WUHU216HW,2013-01-17 20:44:00,
2013-01-17 12:49:00,55.1,35.6,30.18,NNE,23,10.7,13.4,48,0.00,,,0.01,WUHU216HW,2013-01-17 20:49:00,
2013-01-17 12:54:00,54.9,36.0,30.18,NNE,23,10.5,13.4,49,0.00,,,0.01,WUHU216HW,2013-01-17 20:54:00,
2013-01-17 12:59:00,54.9,36.0,30.17,NNE,23,10.5,12.8,49,0.00,,,0.01,WUHU216HW,2013-01-17 20:59:00,
2013-01-17 13:04:00,55.1,35.6,30.17,NNE,23,11.9,12.8,48,0.00,,,0.01,WUHU216HW,2013-01-17 21:04:00,
2013-01-17 13:09:00,55.1,35.6,30.17,North,0,9.2,11.9,48,0.00,,,0.01,WUHU216HW,2013-01-17 21:09:00,
2013-01-17 13:14:00,55.3,36.4,30.17,NE,45,6.9,11.0,49,0.00,,,0.01,WUHU216HW,2013-01-17 21:14:00,
2013-01-17 13:19:00,55.4,36.0,30.17,North,0,8.5,10.7,48,0.00,,,0.01,WUHU216HW,2013-01-17 21:19:00,
2013-01-17 13:24:00,55.6,36.2,30.17,NNE,23,8.7,12.5,48,0.00,,,0.01,WUHU216HW,2013-01-17 21:24:00,
2013-01-17 13:29:00,55.6,36.2,30.16,North,0,4.9,12.5,48,0.00,,,0.01,WUHU216HW,2013-01-17 21:29:00,
2013-01-17 13:34:00,55.8,36.4,30.16,NE,45,4.9,8.7,48,0.00,,,0.01,WUHU216HW,2013-01-17 21:34:00,
2013-01-17 13:39:00,56.0,35.9,30.16,NE,45,9.2,10.7,47,0.00,,,0.01,WUHU216HW,2013-01-17 21:39:00,
2013-01-17 13:44:00,56.2,35.6,30.16,North,0,7.6,10.7,46,0.00,,,0.01,WUHU216HW,2013-01-17 21:44:00,
2013-01-17 13:49:00,56.3,35.7,30.16,North,0,7.4,10.5,46,0.00,,,0.01,WUHU216HW,2013-01-17 21:49:00,
2013-01-17 13:54:00,56.5,35.9,30.15,NE,45,9.2,10.5,46,0.00,,,0.01,WUHU216HW,2013-01-17 21:54:00,
2013-01-17 13:59:00,56.5,35.9,30.15,NNE,23,12.1,12.1,46,0.00,,,0.01,WUHU216HW,2013-01-17 21:59:00,
2013-01-17 14:04:00,56.5,35.9,30.15,NNE,23,11.2,13.4,46,0.00,,,0.01,WUHU216HW,2013-01-17 22:04:00,
2013-01-17 14:09:00,56.5,35.9,30.15,NNE,23,6.9,13.4,46,0.00,,,0.01,WUHU216HW,2013-01-17 22:09:00,
2013-01-17 14:14:00,56.5,35.9,30.15,NNE,23,9.8,11.6,46,0.00,,,0.01,WUHU216HW,2013-01-17 22:14:00,
2013-01-17 14:19:00,56.5,35.3,30.15,NNE,23,8.9,9.8,45,0.00,,,0.01,WUHU216HW,2013-01-17 22:19:00,
2013-01-17 14:24:00,56.5,35.3,30.15,NE,45,7.8,9.2,45,0.00,,,0.01,WUHU216HW,2013-01-17 22:24:00,
2013-01-17 14:29:00,56.5,34.7,30.15,North,0,8.5,12.1,44,0.00,,,0.01,WUHU216HW,2013-01-17 22:29:00,
2013-01-17 14:34:00,56.9,35.6,30.15,NE,45,7.4,12.1,45,0.00,,,0.01,WUHU216HW,2013-01-17 22:34:00,
2013-01-17 14:39:00,56.7,34.9,30.15,NNE,23,6.3,11.9,44,0.00,,,0.01,WUHU216HW,2013-01-17 22:39:00,
2013-01-17 14:44:00,56.9,35.1,30.15,North,0,9.6,11.9,44,0.00,,,0.01,WUHU216HW,2013-01-17 22:44:00,
2013-01-17 14:49:00,56.9,34.5,30.15,NNE,23,8.9,11.2,43,0.00,,,0.01,WUHU216HW,2013-01-17 22:49:00,
2013-01-17 14:54:00,56.9,34.5,30.15,NNE,23,6.9,11.6,43,0.00,,,0.01,WUHU216HW,2013-01-17 22:54:00,
2013-01-17 14:59:00,56.9,35.1,30.15,North,0,6.3,11.6,44,0.00,,,0.01,WUHU216HW,2013-01-17 22:59:00,
2013-01-17 15:04:00,56.5,34.7,30.15,NE,45,10.5,11.6,44,0.00,,,0.01,WUHU216HW,2013-01-17 23:04:00,
2013-01-17 15:09:00,56.5,34.7,30.15,NNE,23,10.5,12.3,44,0.00,,,0.01,WUHU216HW,2013-01-17 23:09:00,
2013-01-17 15:14:00,56.5,34.7,30.14,NE,45,10.3,12.3,44,0.00,,,0.01,WUHU216HW,2013-01-17 23:14:00,
2013-01-17 15:19:00,56.3,34.6,30.15,NNE,23,11.0,11.0,44,0.00,,,0.01,WUHU216HW,2013-01-17 23:19:00,
2013-01-17 15:24:00,56.5,34.7,30.14,NNE,23,7.6,11.0,44,0.00,,,0.01,WUHU216HW,2013-01-17 23:24:00,
2013-01-17 15:29:00,56.5,34.7,30.14,NE,45,10.3,11.0,44,0.00,,,0.01,WUHU216HW,2013-01-17 23:29:00,
2013-01-17 15:34:00,56.3,34.6,30.14,North,0,9.2,10.3,44,0.00,,,0.01,WUHU216HW,2013-01-17 23:34:00,
2013-01-17 15:39:00,56.3,34.6,30.14,NNE,23,7.2,9.2,44,0.00,,,0.01,WUHU216HW,2013-01-17 23:39:00,
2013-01-17 15:44:00,56.3,35.1,30.14,North,0,5.4,8.5,45,0.00,,,0.01,WUHU216HW,2013-01-17 23:44:00,
2013-01-17 15:49:00,56.2,34.4,30.14,NE,45,6.5,7.6,44,0.00,,,0.01,WUHU216HW,2013-01-17 23:49:00,
2013-01-17 15:54:00,56.2,35.0,30.14,NNE,23,6.7,7.6,45,0.00,,,0.01,WUHU216HW,2013-01-17 23:54:00,
2013-01-17 15:59:00,56.2,35.6,30.14,North,0,6.0,7.2,46,0.00,,,0.01,WUHU216HW,2013-01-17 23:59:00,
2013-01-17 16:04:00,56.0,34.8,30.14,NNE,23,9.2,9.2,45,0.00,,,0.01,WUHU216HW,2013-01-18 00:04:00,
2013-01-17 16:09:00,55.8,34.7,30.14,North,0,6.0,9.2,45,0.00,,,0.01,WUHU216HW,2013-01-18 00:09:00,
2013-01-17 16:14:00,55.8,35.2,30.14,NNE,23,5.4,9.2,46,0.00,,,0.01,WUHU216HW,2013-01-18 00:14:00,
2013-01-17 16:19:00,55.8,35.2,30.14,NE,45,7.4,8.1,46,0.00,,,0.01,WUHU216HW,2013-01-18 00:19:00,
2013-01-17 16:24:00,55.6,36.2,30.14,NE,45,5.4,7.6,48,0.00,,,0.01,WUHU216HW,2013-01-18 00:24:00,
2013-01-17 16:29:00,55.3,36.4,30.14,NE,45,4.9,7.6,49,0.00,,,0.01,WUHU216HW,2013-01-18 00:29:00,
2013-01-17 16:34:00,55.1,36.2,30.14,North,0,7.6,7.6,49,0.00,,,0.01,WUHU216HW,2013-01-18 00:34:00,
2013-01-17 16:39:00,54.7,36.5,30.14,NNE,23,6.3,7.6,50,0.00,,,0.01,WUHU216HW,2013-01-18 00:39:00,
2013-01-17 16:44:00,54.4,35.6,30.14,NNW,338,4.7,7.6,49,0.00,,,0.01,WUHU216HW,2013-01-18 00:44:00,
2013-01-17 16:49:00,54.2,35.9,30.15,NNE,23,4.9,7.4,50,0.00,,,0.01,WUHU216HW,2013-01-18 00:49:00,
2013-01-17 16:54:00,53.8,36.1,30.14,NNE,23,7.2,8.1,51,0.00,,,0.01,WUHU216HW,2013-01-18 00:54:00,
2013-01-17 16:59:00,53.3,36.1,30.15,NNE,23,9.2,9.2,52,0.00,,,0.01,WUHU216HW,2013-01-18 00:59:00,
2013-01-17 17:04:00,53.1,35.9,30.15,North,0,5.6,9.2,52,0.00,,,0.01,WUHU216HW,2013-01-18 01:04:00,
2013-01-17 17:09:00,52.7,36.0,30.15,NNE,23,7.2,8.1,53,0.00,,,0.01,WUHU216HW,2013-01-18 01:09:00,
2013-01-17 17:14:00,52.4,36.2,30.15,North,0,7.4,10.1,54,0.00,,,0.01,WUHU216HW,2013-01-18 01:14:00,
2013-01-17 17:19:00,52.2,36.0,30.15,NNE,23,7.6,10.1,54,0.00,,,0.01,WUHU216HW,2013-01-18 01:19:00,
2013-01-17 17:24:00,51.8,36.1,30.15,NNE,23,4.0,8.5,55,0.00,,,0.01,WUHU216HW,2013-01-18 01:24:00,
2013-01-17 17:29:00,51.5,35.7,30.15,NNE,23,5.4,6.3,55,0.00,,,0.01,WUHU216HW,2013-01-18 01:29:00,
2013-01-17 17:34:00,51.3,36.1,30.15,NNE,23,4.0,5.4,56,0.00,,,0.01,WUHU216HW,2013-01-18 01:34:00,
2013-01-17 17:39:00,50.9,35.7,30.15,North,0,2.0,4.3,56,0.00,,,0.01,WUHU216HW,2013-01-18 01:39:00,
2013-01-17 17:44:00,50.8,35.6,30.15,NNE,23,2.9,4.0,56,0.00,,,0.01,WUHU216HW,2013-01-18 01:44:00,
2013-01-17 17:49:00,50.6,35.8,30.15,NNE,23,5.4,5.4,57,0.00,,,0.01,WUHU216HW,2013-01-18 01:49:00,
2013-01-17 17:54:00,50.2,35.6,30.15,NE,45,1.3,5.4,57,0.00,,,0.01,WUHU216HW,2013-01-18 01:54:00,
2013-01-17 17:59:00,49.7,34.6,30.15,ENE,68,1.6,2.2,56,0.00,,,0.01,WUHU216HW,2013-01-18 01:59:00,
2013-01-17 18:04:00,49.0,33.9,30.15,ENE,68,1.8,2.0,56,0.00,,,0.01,WUHU216HW,2013-01-18 02:04:00,
2013-01-17 18:08:00,48.6,33.6,30.16,East,90,1.3,2.0,56,0.00,,,0.01,WUHU216HW,2013-01-18 02:08:00,
2013-01-17 18:14:00,47.9,32.9,30.16,East,90,0.9,1.8,56,0.00,,,0.01,WUHU216HW,2013-01-18 02:14:00,
2013-01-17 18:19:00,47.2,32.7,30.16,East,90,1.1,1.8,57,0.00,,,0.01,WUHU216HW,2013-01-18 02:19:00,
2013-01-17 18:24:00,46.6,32.1,30.16,East,90,1.8,2.0,57,0.00,,,0.01,WUHU216HW,2013-01-18 02:24:00,
2013-01-17 18:29:00,46.1,31.6,30.16,East,90,0.0,2.0,57,0.00,,,0.01,WUHU216HW,2013-01-18 02:29:00,
2013-01-17 18:34:00,45.7,31.3,30.16,East,90,0.2,1.8,57,0.00,,,0.01,WUHU216HW,2013-01-18 02:34:00,
2013-01-17 18:39:00,45.4,31.4,30.16,East,90,0.0,0.9,58,0.00,,,0.01,WUHU216HW,2013-01-18 02:39:00,
2013-01-17 18:44:00,44.8,31.0,30.16,East,90,1.6,1.6,58,0.00,,,0.01,WUHU216HW,2013-01-18 02:44:00,
2013-01-17 18:49:00,44.3,30.4,30.16,ESE,113,1.1,2.2,58,0.00,,,0.01,WUHU216HW,2013-01-18 02:49:00,
2013-01-17 18:54:00,43.9,30.5,30.15,SE,135,1.1,3.1,59,0.00,,,0.01,WUHU216HW,2013-01-18 02:54:00,
2013-01-17 18:59:00,43.4,31.2,30.16,East,90,0.9,3.1,62,0.00,,,0.01,WUHU216HW,2013-01-18 02:59:00,
2013-01-17 19:04:00,43.0,30.9,30.15,ESE,113,0.0,1.6,62,0.00,,,0.01,WUHU216HW,2013-01-18 03:04:00,
2013-01-17 19:09:00,42.7,30.5,30.15,ESE,113,0.4,1.1,62,0.00,,,0.01,WUHU216HW,2013-01-18 03:09:00,
2013-01-17 19:14:00,42.3,30.6,30.16,ESE,113,1.3,1.3,63,0.00,,,0.01,WUHU216HW,2013-01-18 03:14:00,
2013-01-17 19:19:00,41.9,30.3,30.16,SSE,158,0.7,1.8,63,0.00,,,0.01,WUHU216HW,2013-01-18 03:19:00,
2013-01-17 19:24:00,41.6,29.9,30.16,SSE,158,0.0,1.8,63,0.00,,,0.01,WUHU216HW,2013-01-18 03:24:00,
2013-01-17 19:29:00,41.2,29.5,30.16,SSE,158,0.0,0.9,63,0.00,,,0.01,WUHU216HW,2013-01-18 03:29:00,
2013-01-17 19:34:00,40.9,29.6,30.15,SSE,158,0.0,0.0,64,0.00,,,0.01,WUHU216HW,2013-01-18 03:34:00,
2013-01-17 19:39:00,40.7,29.4,30.16,ESE,113,0.9,0.9,64,0.00,,,0.01,WUHU216HW,2013-01-18 03:39:00,
2013-01-17 19:44:00,40.1,29.3,30.15,SE,135,0.4,1.8,65,0.00,,,0.01,WUHU216HW,2013-01-18 03:44:00,
2013-01-17 19:49:00,39.8,28.5,30.15,SE,135,0.0,1.8,64,0.00,,,0.01,WUHU216HW,2013-01-18 03:49:00,
2013-01-17 19:54:00,39.4,28.5,30.15,SE,135,1.8,1.8,65,0.00,,,0.01,WUHU216HW,2013-01-18 03:54:00,
2013-01-17 19:59:00,39.2,28.4,30.15,SE,135,1.8,1.8,65,0.00,,,0.01,WUHU216HW,2013-01-18 03:59:00,
2013-01-17 20:04:00,38.9,28.5,30.15,ESE,113,0.9,1.8,66,0.00,,,0.01,WUHU216HW,2013-01-18 04:04:00,
2013-01-17 20:09:00,38.7,28.6,30.15,SE,135,0.7,1.1,67,0.00,,,0.01,WUHU216HW,2013-01-18 04:09:00,
2013-01-17 20:14:00,38.3,28.3,30.15,SE,135,1.1,1.1,67,0.00,,,0.01,WUHU216HW,2013-01-18 04:14:00,
2013-01-17 20:19:00,38.2,28.2,30.15,SE,135,0.4,1.1,67,0.00,,,0.01,WUHU216HW,2013-01-18 04:19:00,
2013-01-17 20:24:00,38.2,28.9,30.15,SE,135,0.0,1.1,69,0.00,,,0.01,WUHU216HW,2013-01-18 04:24:00,
2013-01-17 20:29:00,37.8,28.5,30.15,SE,135,0.0,1.1,69,0.00,,,0.01,WUHU216HW,2013-01-18 04:29:00,
2013-01-17 20:34:00,37.8,28.5,30.15,SE,135,1.3,1.3,69,0.00,,,0.01,WUHU216HW,2013-01-18 04:34:00,
2013-01-17 20:39:00,37.6,28.5,30.15,SE,135,0.4,1.3,69,0.00,,,0.01,WUHU216HW,2013-01-18 04:39:00,
2013-01-17 20:44:00,37.4,28.3,30.15,SE,135,0.7,1.3,69,0.00,,,0.01,WUHU216HW,2013-01-18 04:44:00,
2013-01-17 20:49:00,37.3,28.1,30.15,SE,135,0.9,1.3,69,0.00,,,0.01,WUHU216HW,2013-01-18 04:49:00,
2013-01-17 20:54:00,37.1,27.9,30.15,SE,135,0.0,1.1,69,0.00,,,0.01,WUHU216HW,2013-01-18 04:54:00,
2013-01-17 20:59:00,37.1,28.3,30.16,ESE,113,1.3,1.3,70,0.00,,,0.01,WUHU216HW,2013-01-18 04:59:00,
2013-01-17 21:00:00,36.9,28.1,30.16,East,90,1.6,1.6,70,0.00,,,0.01,WUHU216HW,2013-01-18 05:00:00,
2013-01-17 21:03:00,36.9,28.1,30.16,ESE,113,1.1,1.6,70,0.00,,,0.01,WUHU216HW,2013-01-18 05:03:00,
2013-01-17 21:08:00,36.7,27.9,30.15,ESE,113,0.9,1.6,70,0.00,,,0.01,WUHU216HW,2013-01-18 05:08:00,
2013-01-17 21:13:00,36.4,27.5,30.15,SSE,158,1.8,1.8,70,0.00,,,0.01,WUHU216HW,2013-01-18 05:13:00,
2013-01-17 21:18:00,36.4,27.9,30.15,SSE,158,0.4,1.8,71,0.00,,,0.01,WUHU216HW,2013-01-18 05:18:00,
2013-01-17 21:23:00,36.2,27.7,30.16,SSE,158,0.0,1.6,71,0.00,,,0.01,WUHU216HW,2013-01-18 05:23:00,
2013-01-17 21:28:00,36.0,27.6,30.15,SSE,158,0.2,1.6,71,0.00,,,0.01,WUHU216HW,2013-01-18 05:28:00,
2013-01-17 21:33:00,35.8,27.4,30.16,SSE,158,0.9,0.9,71,0.00,,,0.01,WUHU216HW,2013-01-18 05:33:00,
2013-01-17 21:38:00,35.6,27.2,30.16,SSE,158,0.0,0.9,71,0.00,,,0.01,WUHU216HW,2013-01-18 05:38:00,
2013-01-17 21:43:00,35.6,27.2,30.16,SSE,158,0.0,0.7,71,0.00,,,0.01,WUHU216HW,2013-01-18 05:43:00,
2013-01-17 21:48:00,35.5,27.0,30.16,SE,135,1.1,1.1,71,0.00,,,0.01,WUHU216HW,2013-01-18 05:48:00,
2013-01-17 21:53:00,35.3,26.8,30.16,SE,135,0.7,1.1,71,0.00,,,0.01,WUHU216HW,2013-01-18 05:53:00,
2013-01-17 21:58:00,34.9,26.5,30.16,SE,135,0.4,1.1,71,0.00,,,0.01,WUHU216HW,2013-01-18 05:58:00,
2013-01-17 22:03:00,34.9,26.7,30.16,SE,135,0.0,1.1,72,0.00,,,0.01,WUHU216HW,2013-01-18 06:03:00,
2013-01-17 22:08:00,34.9,26.7,30.16,SE,135,0.0,0.7,72,0.00,,,0.01,WUHU216HW,2013-01-18 06:08:00,
2013-01-17 22:13:00,34.7,26.6,30.16,SSE,158,1.1,1.1,72,0.00,,,0.01,WUHU216HW,2013-01-18 06:13:00,
2013-01-17 22:18:00,34.6,26.4,30.15,SSE,158,0.4,1.8,72,0.00,,,0.01,WUHU216HW,2013-01-18 06:18:00,
2013-01-17 22:23:00,34.4,26.2,30.16,ESE,113,0.4,1.8,72,0.00,,,0.01,WUHU216HW,2013-01-18 06:23:00,
2013-01-17 22:28:00,34.2,25.8,30.16,ESE,113,0.4,1.1,71,0.00,,,0.01,WUHU216HW,2013-01-18 06:28:00,
2013-01-17 22:33:00,34.2,26.0,30.16,ESE,113,0.0,0.7,72,0.00,,,0.01,WUHU216HW,2013-01-18 06:33:00,
2013-01-17 22:38:00,34.2,26.0,30.17,ENE,68,0.4,0.9,72,0.00,,,0.01,WUHU216HW,2013-01-18 06:38:00,
2013-01-17 22:43:00,34.2,26.4,30.17,ENE,68,1.1,1.1,73,0.00,,,0.01,WUHU216HW,2013-01-18 06:43:00,
2013-01-17 22:48:00,34.2,26.4,30.17,ESE,113,1.1,1.3,73,0.00,,,0.01,WUHU216HW,2013-01-18 06:48:00,
2013-01-17 22:53:00,34.2,26.4,30.17,SE,135,0.4,1.3,73,0.00,,,0.01,WUHU216HW,2013-01-18 06:53:00,
2013-01-17 22:58:00,34.2,26.4,30.17,ESE,113,0.4,1.1,73,0.00,,,0.01,WUHU216HW,2013-01-18 06:58:00,
2013-01-17 23:03:00,34.2,26.4,30.17,ESE,113,0.0,1.1,73,0.00,,,0.01,WUHU216HW,2013-01-18 07:03:00,
2013-01-17 23:08:00,34.0,26.2,30.17,ESE,113,0.7,0.7,73,0.00,,,0.01,WUHU216HW,2013-01-18 07:08:00,
2013-01-17 23:13:00,33.8,26.0,30.17,ESE,113,0.4,0.9,73,0.00,,,0.01,WUHU216HW,2013-01-18 07:13:00,
2013-01-17 23:18:00,33.7,25.8,30.17,SE,135,0.2,0.9,73,0.00,,,0.01,WUHU216HW,2013-01-18 07:18:00,
2013-01-17 23:23:00,33.5,25.7,30.17,ESE,113,0.9,0.9,73,0.00,,,0.01,WUHU216HW,2013-01-18 07:23:00,
2013-01-17 23:28:00,33.5,25.7,30.18,ESE,113,0.7,1.1,73,0.00,,,0.01,WUHU216HW,2013-01-18 07:28:00,
2013-01-17 23:33:00,33.5,25.7,30.18,ESE,113,0.0,1.1,73,0.00,,,0.01,WUHU216HW,2013-01-18 07:33:00,
2013-01-17 23:38:00,33.5,26.0,30.18,ESE,113,0.0,0.4,74,0.00,,,0.01,WUHU216HW,2013-01-18 07:38:00,
2013-01-17 23:43:00,33.5,26.0,30.17,SE,135,0.4,0.7,74,0.00,,,0.01,WUHU216HW,2013-01-18 07:43:00,
2013-01-17 23:48:00,33.3,25.8,30.18,ESE,113,0.4,0.7,74,0.00,,,0.01,WUHU216HW,2013-01-18 07:48:00,
2013-01-17 23:53:00,33.3,25.8,30.18,ESE,113,0.0,0.7,74,0.00,,,0.01,WUHU216HW,2013-01-18 07:53:00,
2013-01-17 23:58:00,33.3,25.8,30.17,SE,135,0.0,0.9,74,0.00,,,0.01,WUHU216HW,2013-01-18 07:58:00,